Time;durP1;ratioP1;P1;durP2;ratioP2;P2;SDS_P1;SDS_P2;PMS_P1;PMS_P2;Temp;Humidity;BMP_temperature;BMP_pressure;BME280_temperature;BME280_humidity;BME280_pressure;Samples;Min_cycle;Max_cycle;Signal;HPM_P1;HPM_P2
2022/12/09 00:01:52;;;;;;;10.2;6.2;;;;;;;;;;;;;
2022/12/09 00:04:18;;;;;;;11.6;6.7;;;;;;;;;;;;;
2022/12/09 00:06:48;;;;;;;9.5;7;;;;;;;;;;;;;
2022/12/09 00:09:15;;;;;;;8.2;4.9;;;;;;;;;;;;;
2022/12/09 00:11:42;;;;;;;5.7;3.8;;;;;;;;;;;;;
2022/12/09 00:14:10;;;;;;;6.8;5.5;;;;;;;;;;;;;
2022/12/09 00:16:57;;;;;;;5.6;4.1;;;;;;;;;;;;;
2022/12/09 00:19:13;;;;;;;6.8;4.5;;;;;;;;;;;;;
2022/12/09 00:21:37;;;;;;;5.1;4.1;;;;;;;;;;;;;
2022/12/09 00:24:12;;;;;;;8.4;3.9;;;;;;;;;;;;;
2022/12/09 00:26:46;;;;;;;8.3;6.8;;;;;;;;;;;;;
2022/12/09 00:29:11;;;;;;;6.5;4.2;;;;;;;;;;;;;
2022/12/09 00:31:36;;;;;;;6.3;4.2;;;;;;;;;;;;;
2022/12/09 00:34:02;;;;;;;5.7;3.9;;;;;;;;;;;;;
2022/12/09 00:36:27;;;;;;;6.4;4;;;;;;;;;;;;;
2022/12/09 00:38:56;;;;;;;5.2;4;;;;;;;;;;;;;
2022/12/09 00:41:21;;;;;;;5.2;3.8;;;;;;;;;;;;;
2022/12/09 00:43:47;;;;;;;9.5;7;;;;;;;;;;;;;
2022/12/09 00:46:13;;;;;;;6.4;4;;;;;;;;;;;;;
2022/12/09 00:48:39;;;;;;;6.6;3.7;;;;;;;;;;;;;
2022/12/09 00:51:03;;;;;;;6.3;4.3;;;;;;;;;;;;;
2022/12/09 00:53:30;;;;;;;7;3.8;;;;;;;;;;;;;
2022/12/09 00:55:55;;;;;;;6.1;3.5;;;;;;;;;;;;;
2022/12/09 00:58:20;;;;;;;5.1;3.6;;;;;;;;;;;;;
2022/12/09 01:00:46;;;;;;;5.4;3.5;;;;;;;;;;;;;
2022/12/09 01:03:12;;;;;;;4.7;3.2;;;;;;;;;;;;;
2022/12/09 01:05:37;;;;;;;5.1;3.6;;;;;;;;;;;;;
2022/12/09 01:08:02;;;;;;;5;3.5;;;;;;;;;;;;;
2022/12/09 01:10:27;;;;;;;4.9;3.1;;;;;;;;;;;;;
2022/12/09 01:12:54;;;;;;;4.5;3.1;;;;;;;;;;;;;
2022/12/09 01:15:19;;;;;;;5.5;3.3;;;;;;;;;;;;;
2022/12/09 01:17:46;;;;;;;4.5;2.9;;;;;;;;;;;;;
2022/12/09 01:20:11;;;;;;;5.2;3.2;;;;;;;;;;;;;
2022/12/09 01:22:36;;;;;;;4.9;3.4;;;;;;;;;;;;;
2022/12/09 01:25:01;;;;;;;4.4;3.1;;;;;;;;;;;;;
2022/12/09 01:27:28;;;;;;;4.3;2.8;;;;;;;;;;;;;
2022/12/09 01:29:53;;;;;;;4;2.7;;;;;;;;;;;;;
2022/12/09 01:32:20;;;;;;;5.4;2.9;;;;;;;;;;;;;
2022/12/09 01:34:45;;;;;;;4.6;2.7;;;;;;;;;;;;;
2022/12/09 01:37:10;;;;;;;5.4;3.4;;;;;;;;;;;;;
2022/12/09 01:39:35;;;;;;;4.2;2.7;;;;;;;;;;;;;
2022/12/09 01:42:00;;;;;;;3.4;2.8;;;;;;;;;;;;;
2022/12/09 01:44:27;;;;;;;3.6;2.5;;;;;;;;;;;;;
2022/12/09 01:46:52;;;;;;;4;2.9;;;;;;;;;;;;;
2022/12/09 01:49:17;;;;;;;3.6;2.6;;;;;;;;;;;;;
2022/12/09 01:51:42;;;;;;;5;3;;;;;;;;;;;;;
2022/12/09 01:54:07;;;;;;;4;2.8;;;;;;;;;;;;;
2022/12/09 01:56:41;;;;;;;5.2;3.1;;;;;;;;;;;;;
2022/12/09 01:59:06;;;;;;;4.1;2.7;;;;;;;;;;;;;
2022/12/09 02:01:31;;;;;;;3.9;2.8;;;;;;;;;;;;;
2022/12/09 02:03:57;;;;;;;3.6;2.7;;;;;;;;;;;;;
2022/12/09 02:06:22;;;;;;;4.4;2.4;;;;;;;;;;;;;
2022/12/09 02:08:47;;;;;;;3.5;2.4;;;;;;;;;;;;;
2022/12/09 02:11:14;;;;;;;3.4;2.5;;;;;;;;;;;;;
2022/12/09 02:13:39;;;;;;;4.1;2.2;;;;;;;;;;;;;
2022/12/09 02:16:05;;;;;;;3.2;2.8;;;;;;;;;;;;;
2022/12/09 02:18:32;;;;;;;3.6;2.1;;;;;;;;;;;;;
2022/12/09 02:20:57;;;;;;;3.8;2.2;;;;;;;;;;;;;
2022/12/09 02:23:24;;;;;;;1.9;1.7;;;;;;;;;;;;;
2022/12/09 02:25:49;;;;;;;3;2.2;;;;;;;;;;;;;
2022/12/09 02:28:16;;;;;;;6.4;3.1;;;;;;;;;;;;;
2022/12/09 02:30:42;;;;;;;6.3;3.4;;;;;;;;;;;;;
2022/12/09 02:33:07;;;;;;;5.3;2.9;;;;;;;;;;;;;
2022/12/09 02:35:32;;;;;;;3.8;2.7;;;;;;;;;;;;;
2022/12/09 02:37:58;;;;;;;4.4;2.8;;;;;;;;;;;;;
2022/12/09 03:51:52;;;;;;;4.5;2.6;;;;;;;;;;;;;
2022/12/09 03:54:17;;;;;;;3.8;2.7;;;;;;;;;;;;;
2022/12/09 03:56:42;;;;;;;2.9;2.1;;;;;;;;;;;;;
2022/12/09 03:59:07;;;;;;;4.3;2.7;;;;;;;;;;;;;
2022/12/09 04:12:16;;;;;;;3.4;1.9;;;;;;;-0.61;86.17285;923.4907;;;;
2022/12/09 04:14:47;;;;;;;2.1;1.9;;;;;;;-0.44;85.71777;923.4658;;;;
2022/12/09 04:17:18;;;;;;;2.6;1.8;;;;;;;-0.27;85.11816;923.5032;;;;
2022/12/09 04:19:47;;;;;;;2.6;1.8;;;;;;;-0.12;84.84668;923.4517;;;;
2022/12/09 04:22:12;;;;;;;5;2.2;;;;;;;0.01;84.27246;923.4764;;;;
2022/12/09 04:24:40;;;;;;;2.5;2;;;;;;;-0.04;84.13965;923.4716;;;;
2022/12/09 04:27:05;;;;;;;2.8;1.9;;;;;;;0.06;83.96973;923.3969;;;;
2022/12/09 04:29:36;;;;;;;3.5;2.1;;;;;;;0.03;84.25391;923.3829;;;;
2022/12/09 04:32:01;;;;;;;2.9;2.4;;;;;;;0.04;84.18848;923.3817;;;;
2022/12/09 04:34:34;;;;;;;2.5;2.2;;;;;;;0.12;83.9248;923.3342;;;;
2022/12/09 04:37:02;;;;;;;2.2;1.8;;;;;;;0.17;83.37793;923.2188;;;;
2022/12/09 04:39:27;;;;;;;2.8;2;;;;;;;;;;;;;
2022/12/09 04:41:52;;;;;;;3;2;;;;;;;;;;;;;
2022/12/09 04:44:17;;;;;;;2.1;1.9;;;;;;;;;;;;;
2022/12/09 04:46:45;;;;;;;2.4;1.8;;;;;;;;;;;;;
2022/12/09 04:49:10;;;;;;;3.3;2.1;;;;;;;;;;;;;
2022/12/09 04:51:36;;;;;;;2.9;2.1;;;;;;;;;;;;;
2022/12/09 04:54:01;;;;;;;3.9;2.2;;;;;;;;;;;;;
2022/12/09 04:56:28;;;;;;;3.3;2.4;;;;;;;;;;;;;
2022/12/09 04:58:53;;;;;;;8.4;6.1;;;;;;;;;;;;;
2022/12/09 05:01:20;;;;;;;12.4;7.9;;;;;;;;;;;;;
2022/12/09 05:03:45;;;;;;;14.4;9.1;;;;;;;;;;;;;
2022/12/09 05:06:10;;;;;;;16.2;10.4;;;;;;;;;;;;;
2022/12/09 05:08:35;;;;;;;17.6;10.8;;;;;;;;;;;;;
2022/12/09 05:11:01;;;;;;;16.3;10;;;;;;;;;;;;;
2022/12/09 05:13:26;;;;;;;18.4;10.8;;;;;;;;;;;;;
2022/12/09 05:15:53;;;;;;;17.5;11.1;;;;;;;;;;;;;
2022/12/09 05:18:18;;;;;;;17.6;11.4;;;;;;;;;;;;;
2022/12/09 05:20:43;;;;;;;21.1;12.6;;;;;;;;;;;;;
2022/12/09 05:23:08;;;;;;;19.7;11.9;;;;;;;;;;;;;
2022/12/09 05:25:35;;;;;;;21.5;12.4;;;;;;;;;;;;;
2022/12/09 05:28:00;;;;;;;21;13;;;;;;;;;;;;;
2022/12/09 05:30:26;;;;;;;21;12.9;;;;;;;;;;;;;
2022/12/09 05:32:51;;;;;;;19.4;12.5;;;;;;;;;;;;;
2022/12/09 05:35:16;;;;;;;22.3;13.1;;;;;;;;;;;;;
2022/12/09 05:37:42;;;;;;;20.4;12.5;;;;;;;;;;;;;
2022/12/09 05:40:07;;;;;;;20.2;12.2;;;;;;;;;;;;;
2022/12/09 05:42:34;;;;;;;21.7;12.9;;;;;;;;;;;;;
2022/12/09 05:45:00;;;;;;;19.3;12.2;;;;;;;;;;;;;
2022/12/09 05:47:26;;;;;;;19.1;12.5;;;;;;;;;;;;;
2022/12/09 05:49:51;;;;;;;18.6;11.6;;;;;;;;;;;;;
2022/12/09 05:52:16;;;;;;;19.4;12.3;;;;;;;;;;;;;
2022/12/09 05:54:42;;;;;;;19.8;12.3;;;;;;;;;;;;;
2022/12/09 05:57:07;;;;;;;20.7;12.7;;;;;;;;;;;;;
2022/12/09 05:59:34;;;;;;;20.5;12.7;;;;;;;;;;;;;
2022/12/09 06:01:59;;;;;;;21.5;13.3;;;;;;;;;;;;;
2022/12/09 06:04:26;;;;;;;21.2;12.9;;;;;;;;;;;;;
2022/12/09 06:06:51;;;;;;;19.8;13.2;;;;;;;;;;;;;
2022/12/09 06:09:16;;;;;;;20.5;13;;;;;;;;;;;;;
2022/12/09 06:11:42;;;;;;;20.9;12.9;;;;;;;;;;;;;
2022/12/09 06:14:07;;;;;;;22.7;13.6;;;;;;;;;;;;;
2022/12/09 06:16:32;;;;;;;21.1;13.3;;;;;;;;;;;;;
2022/12/09 06:18:57;;;;;;;20.7;13;;;;;;;;;;;;;
2022/12/09 06:21:23;;;;;;;23.1;14.3;;;;;;;;;;;;;
2022/12/09 06:23:48;;;;;;;20.8;13;;;;;;;;;;;;;
2022/12/09 06:26:15;;;;;;;24;14.5;;;;;;;;;;;;;
2022/12/09 06:28:41;;;;;;;22.5;14.3;;;;;;;;;;;;;
2022/12/09 06:31:07;;;;;;;23.2;14.8;;;;;;;;;;;;;
2022/12/09 06:33:32;;;;;;;23.8;14.6;;;;;;;;;;;;;
2022/12/09 06:36:12;;;;;;;24.8;14.8;;;;;;;;;;;;;
2022/12/09 06:38:39;;;;;;;24.8;14.8;;;;;;;;;;;;;
2022/12/09 06:41:05;;;;;;;23.5;15.1;;;;;;;;;;;;;
2022/12/09 06:43:30;;;;;;;27.2;15.9;;;;;;;;;;;;;
2022/12/09 06:45:57;;;;;;;29.7;16.1;;;;;;;;;;;;;
2022/12/09 06:48:22;;;;;;;26.3;15.7;;;;;;;;;;;;;
2022/12/09 06:50:49;;;;;;;25.7;16.4;;;;;;;;;;;;;
2022/12/09 06:53:14;;;;;;;27;16.5;;;;;;;;;;;;;
2022/12/09 06:55:40;;;;;;;28.7;16.8;;;;;;;;;;;;;
2022/12/09 06:58:06;;;;;;;25.3;15.3;;;;;;;;;;;;;
2022/12/09 07:00:32;;;;;;;24.4;15.2;;;;;;;;;;;;;
2022/12/09 07:02:57;;;;;;;24.3;14.3;;;;;;;;;;;;;
2022/12/09 07:05:23;;;;;;;25;14.9;;;;;;;;;;;;;
2022/12/09 07:07:49;;;;;;;25.4;15.8;;;;;;;;;;;;;
2022/12/09 07:10:14;;;;;;;23.4;15.3;;;;;;;;;;;;;
2022/12/09 07:12:40;;;;;;;26.1;15.6;;;;;;;;;;;;;
2022/12/09 07:15:05;;;;;;;21.8;14.7;;;;;;;;;;;;;
2022/12/09 07:17:30;;;;;;;25.3;15.5;;;;;;;;;;;;;
2022/12/09 07:19:56;;;;;;;24.6;15.5;;;;;;;;;;;;;
2022/12/09 07:22:21;;;;;;;26.7;15.8;;;;;;;;;;;;;
2022/12/09 07:24:49;;;;;;;24.1;16.2;;;;;;;;;;;;;
2022/12/09 07:27:14;;;;;;;25.7;16.2;;;;;;;;;;;;;
2022/12/09 07:29:41;;;;;;;26;15.6;;;;;;;;;;;;;
2022/12/09 07:32:06;;;;;;;24.3;15;;;;;;;;;;;;;
2022/12/09 07:34:32;;;;;;;24.9;15.8;;;;;;;;;;;;;
2022/12/09 07:36:57;;;;;;;24;15.2;;;;;;;;;;;;;
2022/12/09 07:39:26;;;;;;;25.2;15.4;;;;;;;;;;;;;
2022/12/09 07:41:57;;;;;;;21.3;14.3;;;;;;;;;;;;;
2022/12/09 07:44:27;;;;;;;23.9;15.3;;;;;;;;;;;;;
2022/12/09 07:46:51;;;;;;;24.2;15;;;;;;;;;;;;;
2022/12/09 07:49:17;;;;;;;22.1;14.6;;;;;;;;;;;;;
2022/12/09 07:51:42;;;;;;;24.3;15.7;;;;;;;;;;;;;
2022/12/09 07:54:07;;;;;;;26.4;16;;;;;;;;;;;;;
2022/12/09 07:56:33;;;;;;;26.3;15.6;;;;;;;;;;;;;
2022/12/09 07:58:59;;;;;;;24;15.2;;;;;;;;;;;;;
2022/12/09 08:01:24;;;;;;;26.8;15.8;;;;;;;;;;;;;
2022/12/09 08:03:49;;;;;;;25;15.5;;;;;;;;;;;;;
2022/12/09 08:06:14;;;;;;;25;15.3;;;;;;;;;;;;;
2022/12/09 08:08:41;;;;;;;23.7;14.6;;;;;;;;;;;;;
2022/12/09 08:11:06;;;;;;;23.3;14.8;;;;;;;;;;;;;
2022/12/09 08:13:31;;;;;;;22.4;14.7;;;;;;;;;;;;;
2022/12/09 08:15:57;;;;;;;23.8;14.5;;;;;;;;;;;;;
2022/12/09 08:18:23;;;;;;;22;13.2;;;;;;;;;;;;;
2022/12/09 08:20:48;;;;;;;22.9;14.2;;;;;;;;;;;;;
2022/12/09 08:23:14;;;;;;;21.1;13.9;;;;;;;;;;;;;
2022/12/09 08:25:39;;;;;;;23.4;14.3;;;;;;;;;;;;;
2022/12/09 08:28:05;;;;;;;22.1;14.3;;;;;;;;;;;;;
2022/12/09 08:30:30;;;;;;;22.3;14.2;;;;;;;;;;;;;
2022/12/09 08:32:58;;;;;;;21.9;14;;;;;;;;;;;;;
2022/12/09 08:35:23;;;;;;;22.6;14.7;;;;;;;;;;;;;
2022/12/09 08:37:52;;;;;;;21;14.1;;;;;;;;;;;;;
2022/12/09 08:40:22;;;;;;;22.4;14.5;;;;;;;;;;;;;
2022/12/09 08:42:53;;;;;;;23;14.2;;;;;;;;;;;;;
2022/12/09 08:45:22;;;;;;;21.5;14.4;;;;;;;;;;;;;
2022/12/09 08:47:47;;;;;;;46;27.9;;;;;;;;;;;;;
2022/12/09 08:50:13;;;;;;;32.8;20.2;;;;;;;;;;;;;
2022/12/09 08:52:39;;;;;;;24.3;16.7;;;;;;;;;;;;;
2022/12/09 08:55:07;;;;;;;99.5;53.8;;;;;;;;;;;;;
2022/12/09 08:57:32;;;;;;;47.3;29.3;;;;;;;;;;;;;
2022/12/09 08:59:57;;;;;;;31.5;19.8;;;;;;;;;;;;;
2022/12/09 09:02:22;;;;;;;26.2;16.8;;;;;;;;;;;;;
2022/12/09 09:04:49;;;;;;;24.4;16;;;;;;;;;;;;;
2022/12/09 09:07:14;;;;;;;22.8;15.1;;;;;;;;;;;;;
2022/12/09 09:09:39;;;;;;;21.5;12.9;;;;;;;;;;;;;
2022/12/09 09:12:04;;;;;;;17.3;11.8;;;;;;;;;;;;;
2022/12/09 09:14:29;;;;;;;19.7;12.8;;;;;;;;;;;;;
2022/12/09 09:16:57;;;;;;;23.6;14.1;;;;;;;;;;;;;
2022/12/09 09:19:24;;;;;;;21.7;14.3;;;;;;;;;;;;;
2022/12/09 09:21:50;;;;;;;23.5;14.4;;;;;;;;;;;;;
2022/12/09 09:24:15;;;;;;;20;13.8;;;;;;;;;;;;;
2022/12/09 09:26:41;;;;;;;18.4;12.9;;;;;;;;;;;;;
2022/12/09 09:29:06;;;;;;;20.7;12.7;;;;;;;;;;;;;
2022/12/09 09:31:33;;;;;;;20.6;12.6;;;;;;;;;;;;;
2022/12/09 09:33:57;;;;;;;17.6;11.9;;;;;;;;;;;;;
2022/12/09 09:36:23;;;;;;;21.4;13.4;;;;;;;;;;;;;
2022/12/09 09:38:48;;;;;;;21.4;12.6;;;;;;;;;;;;;
2022/12/09 09:41:14;;;;;;;17.6;11.9;;;;;;;;;;;;;
2022/12/09 09:43:39;;;;;;;22;13.7;;;;;;;;;;;;;
2022/12/09 09:46:04;;;;;;;18.2;12.3;;;;;;;;;;;;;
2022/12/09 09:48:30;;;;;;;22;13.1;;;;;;;;;;;;;
2022/12/09 09:50:55;;;;;;;18.7;12;;;;;;;;;;;;;
2022/12/09 09:53:20;;;;;;;18.6;12.1;;;;;;;;;;;;;
2022/12/09 09:55:46;;;;;;;24;14.2;;;;;;;;;;;;;
2022/12/09 09:58:14;;;;;;;22.9;14.3;;;;;;;;;;;;;
2022/12/09 10:00:39;;;;;;;25;14.5;;;;;;;;;;;;;
2022/12/09 10:03:07;;;;;;;21;13.8;;;;;;;;;;;;;
2022/12/09 10:05:32;;;;;;;21.9;14.4;;;;;;;;;;;;;
2022/12/09 10:07:57;;;;;;;22.1;14;;;;;;;;;;;;;
2022/12/09 10:10:22;;;;;;;23.3;12.7;;;;;;;;;;;;;
2022/12/09 10:12:47;;;;;;;21.8;13.9;;;;;;;;;;;;;
2022/12/09 10:15:12;;;;;;;21.6;14.1;;;;;;;;;;;;;
2022/12/09 10:17:40;;;;;;;19.2;13.4;;;;;;;;;;;;;
2022/12/09 10:20:06;;;;;;;22.3;14;;;;;;;;;;;;;
2022/12/09 10:22:31;;;;;;;25.1;16.4;;;;;;;;;;;;;
2022/12/09 10:24:56;;;;;;;25;16.7;;;;;;;;;;;;;
2022/12/09 10:27:22;;;;;;;26.4;16.5;;;;;;;;;;;;;
2022/12/09 10:29:47;;;;;;;25.8;15.9;;;;;;;;;;;;;
2022/12/09 10:32:13;;;;;;;23.6;15.3;;;;;;;;;;;;;
2022/12/09 10:34:39;;;;;;;18.5;13.5;;;;;;;;;;;;;
2022/12/09 10:37:04;;;;;;;21;13.2;;;;;;;;;;;;;
2022/12/09 10:39:30;;;;;;;20.6;13.4;;;;;;;;;;;;;
2022/12/09 10:44:22;;;;;;;15.9;11.3;;;;;;;;;;;;;
2022/12/09 10:46:48;;;;;;;16.9;11.3;;;;;;;;;;;;;
2022/12/09 10:49:15;;;;;;;19.8;12.8;;;;;;;;;;;;;
2022/12/09 10:51:40;;;;;;;19.9;13.4;;;;;;;;;;;;;
2022/12/09 10:54:07;;;;;;;20.3;13.4;;;;;;;;;;;;;
2022/12/09 10:56:32;;;;;;;22.8;13.6;;;;;;;;;;;;;
2022/12/09 10:59:10;;;;;;;17.5;11.9;;;;;;;;;;;;;
2022/12/09 11:01:35;;;;;;;16.8;10.6;;;;;;;;;;;;;
2022/12/09 11:04:00;;;;;;;15.7;10.4;;;;;;;;;;;;;
2022/12/09 11:06:26;;;;;;;14.9;10.6;;;;;;;;;;;;;
2022/12/09 11:08:51;;;;;;;15.7;10.3;;;;;;;;;;;;;
2022/12/09 11:11:18;;;;;;;16.6;11;;;;;;;;;;;;;
2022/12/09 11:13:43;;;;;;;15.1;10.4;;;;;;;;;;;;;
2022/12/09 11:16:12;;;;;;;15.6;10.4;;;;;;;;;;;;;
2022/12/09 11:18:37;;;;;;;15.9;10.7;;;;;;;;;;;;;
2022/12/09 11:21:02;;;;;;;16;11;;;;;;;;;;;;;
2022/12/09 11:23:27;;;;;;;17.6;12;;;;;;;;;;;;;
2022/12/09 11:25:52;;;;;;;18;10.9;;;;;;;;;;;;;
2022/12/09 11:28:19;;;;;;;17.2;10.7;;;;;;;;;;;;;
2022/12/09 11:30:44;;;;;;;18.2;12.2;;;;;;;;;;;;;
2022/12/09 11:33:11;;;;;;;19.4;12.3;;;;;;;;;;;;;
2022/12/09 11:35:36;;;;;;;16.7;11.5;;;;;;;;;;;;;
2022/12/09 11:38:01;;;;;;;17.9;11.7;;;;;;;;;;;;;
2022/12/09 11:40:29;;;;;;;19.8;11.1;;;;;;;;;;;;;
2022/12/09 11:42:54;;;;;;;17.6;11.3;;;;;;;;;;;;;
2022/12/09 11:45:19;;;;;;;15.6;10.2;;;;;;;;;;;;;
2022/12/09 11:47:47;;;;;;;18.3;11.1;;;;;;;;;;;;;
2022/12/09 11:50:49;;;;;;;15.7;10.2;;;;;;;;;;;;;
2022/12/09 11:53:09;;;;;;;17.2;11.5;;;;;;;;;;;;;
2022/12/09 11:55:34;;;;;;;17.3;11.3;;;;;;;;;;;;;
2022/12/09 11:57:59;;;;;;;16.7;11.4;;;;;;;;;;;;;
2022/12/09 12:00:26;;;;;;;15.5;10.3;;;;;;;;;;;;;
2022/12/09 12:02:51;;;;;;;16.2;10.7;;;;;;;;;;;;;
2022/12/09 12:05:20;;;;;;;17.1;11.5;;;;;;;;;;;;;
2022/12/09 12:07:44;;;;;;;15.5;10.3;;;;;;;;;;;;;
2022/12/09 12:10:12;;;;;;;15.5;10.2;;;;;;;;;;;;;
2022/12/09 12:12:37;;;;;;;14.5;10;;;;;;;;;;;;;
2022/12/09 12:15:02;;;;;;;15;9.9;;;;;;;;;;;;;
2022/12/09 12:17:30;;;;;;;15;10.5;;;;;;;;;;;;;
2022/12/09 12:19:57;;;;;;;14.2;10.1;;;;;;;;;;;;;
2022/12/09 12:22:21;;;;;;;15.2;9.5;;;;;;;;;;;;;
2022/12/09 12:24:48;;;;;;;14.2;8.6;;;;;;;;;;;;;
2022/12/09 12:27:13;;;;;;;11.7;8.4;;;;;;;;;;;;;
2022/12/09 12:29:38;;;;;;;13.4;9.5;;;;;;;;;;;;;
2022/12/09 12:32:03;;;;;;;13.2;9.2;;;;;;;;;;;;;
2022/12/09 12:34:30;;;;;;;14.1;9.2;;;;;;;;;;;;;
2022/12/09 12:36:55;;;;;;;13.1;9.4;;;;;;;;;;;;;
2022/12/09 12:39:20;;;;;;;12.7;9.2;;;;;;;;;;;;;
2022/12/09 12:41:45;;;;;;;13.7;8.7;;;;;;;;;;;;;
2022/12/09 12:46:35;;;;;;;14.7;9.1;;;;;;;;;;;;;
2022/12/09 12:49:01;;;;;;;16.3;9.4;;;;;;;;;;;;;
2022/12/09 12:51:27;;;;;;;13.4;9.4;;;;;;;;;;;;;
2022/12/09 12:53:52;;;;;;;13.7;9;;;;;;;;;;;;;
2022/12/09 12:56:17;;;;;;;13.9;9.3;;;;;;;;;;;;;
2022/12/09 12:58:42;;;;;;;14.3;10.5;;;;;;;;;;;;;
2022/12/09 13:01:07;;;;;;;15.6;9.2;;;;;;;;;;;;;
2022/12/09 13:03:34;;;;;;;14.7;10.1;;;;;;;;;;;;;
2022/12/09 13:05:59;;;;;;;16;10.2;;;;;;;;;;;;;
2022/12/09 13:08:26;;;;;;;15.4;10.2;;;;;;;;;;;;;
2022/12/09 13:10:51;;;;;;;15.5;10.5;;;;;;;;;;;;;
2022/12/09 13:13:16;;;;;;;16.2;10.8;;;;;;;;;;;;;
2022/12/09 13:15:43;;;;;;;15.5;10.2;;;;;;;;;;;;;
2022/12/09 13:18:08;;;;;;;15.5;10.6;;;;;;;;;;;;;
2022/12/09 13:20:33;;;;;;;18.1;11.6;;;;;;;;;;;;;
2022/12/09 13:22:59;;;;;;;17.6;11;;;;;;;;;;;;;
2022/12/09 13:25:26;;;;;;;17;11.8;;;;;;;;;;;;;
2022/12/09 13:27:51;;;;;;;16.4;11.4;;;;;;;;;;;;;
2022/12/09 13:30:18;;;;;;;18.7;12.6;;;;;;;;;;;;;
2022/12/09 13:32:44;;;;;;;23.5;14.5;;;;;;;;;;;;;
2022/12/09 13:35:10;;;;;;;19.2;12.8;;;;;;;;;;;;;
2022/12/09 13:37:35;;;;;;;19.7;12.2;;;;;;;;;;;;;
2022/12/09 13:40:01;;;;;;;21.7;14.1;;;;;;;;;;;;;
2022/12/09 13:44:52;;;;;;;32.4;18.9;;;;;;;;;;;;;
2022/12/09 13:47:18;;;;;;;21.4;14.5;;;;;;;;;;;;;
2022/12/09 13:49:44;;;;;;;20.5;13.6;;;;;;;;;;;;;
2022/12/09 13:52:11;;;;;;;24.7;14.8;;;;;;;;;;;;;
2022/12/09 13:54:36;;;;;;;25.6;15.1;;;;;;;;;;;;;
2022/12/09 13:57:05;;;;;;;21.2;14.4;;;;;;;;;;;;;
2022/12/09 13:59:30;;;;;;;28.2;16.7;;;;;;;;;;;;;
2022/12/09 14:02:01;;;;;;;22.6;14.7;;;;;;;;;;;;;
2022/12/09 14:04:24;;;;;;;24.3;15;;;;;;;;;;;;;
2022/12/09 14:06:49;;;;;;;24.1;15.5;;;;;;;;;;;;;
2022/12/09 14:09:14;;;;;;;22.2;14.8;;;;;;;;;;;;;
2022/12/09 14:11:39;;;;;;;23.2;14.3;;;;;;;;;;;;;
2022/12/09 14:14:04;;;;;;;23.2;14.8;;;;;;;;;;;;;
2022/12/09 14:16:30;;;;;;;21.3;14;;;;;;;;;;;;;
2022/12/09 14:18:55;;;;;;;22.5;13.9;;;;;;;;;;;;;
2022/12/09 14:21:22;;;;;;;23.2;14.8;;;;;;;;;;;;;
2022/12/09 14:23:47;;;;;;;24.3;15.3;;;;;;;;;;;;;
2022/12/09 14:26:15;;;;;;;23.2;15.3;;;;;;;;;;;;;
2022/12/09 14:28:41;;;;;;;24.9;15.7;;;;;;;;;;;;;
2022/12/09 14:31:06;;;;;;;24.3;15.1;;;;;;;;;;;;;
2022/12/09 14:33:31;;;;;;;24;14.8;;;;;;;;;;;;;
2022/12/09 14:35:59;;;;;;;23.4;15.4;;;;;;;;;;;;;
2022/12/09 14:38:24;;;;;;;24.5;15.1;;;;;;;;;;;;;
2022/12/09 14:40:50;;;;;;;26.4;16.2;;;;;;;;;;;;;
2022/12/09 14:43:16;;;;;;;25.6;16.2;;;;;;;;;;;;;
2022/12/09 14:45:44;;;;;;;26.5;16.6;;;;;;;;;;;;;
2022/12/09 14:48:09;;;;;;;25.1;16.1;;;;;;;;;;;;;
2022/12/09 14:50:37;;;;;;;27.3;15.9;;;;;;;;;;;;;
2022/12/09 14:52:59;;;;;;;24.4;15.7;;;;;;;;;;;;;
2022/12/09 14:55:24;;;;;;;24;15.1;;;;;;;;;;;;;
2022/12/09 14:57:49;;;;;;;25.7;16.1;;;;;;;;;;;;;
2022/12/09 15:00:18;;;;;;;26.1;15.8;;;;;;;;;;;;;
2022/12/09 15:02:44;;;;;;;26.6;16.4;;;;;;;;;;;;;
2022/12/09 15:05:11;;;;;;;25.1;15.7;;;;;;;;;;;;;
2022/12/09 15:07:36;;;;;;;24.6;15.4;;;;;;;;;;;;;
2022/12/09 15:10:01;;;;;;;26;15.7;;;;;;;;;;;;;
2022/12/09 15:12:26;;;;;;;23.1;15.6;;;;;;;;;;;;;
2022/12/09 15:14:54;;;;;;;24.9;16.4;;;;;;;;;;;;;
2022/12/09 15:17:19;;;;;;;22.6;15;;;;;;;;;;;;;
2022/12/09 15:19:46;;;;;;;20.8;14.2;;;;;;;;;;;;;
2022/12/09 15:22:11;;;;;;;22.7;14.6;;;;;;;;;;;;;
2022/12/09 15:24:37;;;;;;;24.4;15.1;;;;;;;;;;;;;
2022/12/09 15:27:02;;;;;;;26.2;15.5;;;;;;;;;;;;;
2022/12/09 15:29:28;;;;;;;21.3;14.3;;;;;;;;;;;;;
2022/12/09 15:31:52;;;;;;;23.1;15.1;;;;;;;;;;;;;
2022/12/09 15:34:18;;;;;;;22.3;14.8;;;;;;;;;;;;;
2022/12/09 15:36:45;;;;;;;21.4;14.4;;;;;;;;;;;;;
2022/12/09 15:39:10;;;;;;;21.2;14.4;;;;;;;;;;;;;
2022/12/09 15:44:03;;;;;;;22.5;14.5;;;;;;;;;;;;;
2022/12/09 15:46:28;;;;;;;26.6;16.2;;;;;;;;;;;;;
2022/12/09 15:48:54;;;;;;;21.7;15.3;;;;;;;;;;;;;
2022/12/09 15:51:19;;;;;;;24.8;15.5;;;;;;;;;;;;;
2022/12/09 15:53:45;;;;;;;23.7;15.1;;;;;;;;;;;;;
2022/12/09 15:56:10;;;;;;;23.6;15.2;;;;;;;;;;;;;
2022/12/09 15:58:35;;;;;;;26.1;16;;;;;;;;;;;;;
2022/12/09 16:01:02;;;;;;;21.7;15.7;;;;;;;;;;;;;
2022/12/09 16:03:27;;;;;;;22.4;15;;;;;;;;;;;;;
2022/12/09 16:05:53;;;;;;;23.9;15.9;;;;;;;;;;;;;
2022/12/09 16:08:19;;;;;;;25.1;16.2;;;;;;;;;;;;;
2022/12/09 16:10:45;;;;;;;23.4;15.5;;;;;;;;;;;;;
2022/12/09 16:13:09;;;;;;;26.6;16.3;;;;;;;;;;;;;
2022/12/09 16:15:38;;;;;;;24.6;16.1;;;;;;;;;;;;;
2022/12/09 16:18:03;;;;;;;23.3;15.5;;;;;;;;;;;;;
2022/12/09 16:20:31;;;;;;;25.6;16.4;;;;;;;;;;;;;
2022/12/09 16:22:56;;;;;;;25.9;16.7;;;;;;;;;;;;;
2022/12/09 16:25:21;;;;;;;25.7;16.6;;;;;;;;;;;;;
2022/12/09 16:27:49;;;;;;;22.8;16.2;;;;;;;;;;;;;
2022/12/09 16:30:15;;;;;;;25.1;15.5;;;;;;;;;;;;;
2022/12/09 16:32:46;;;;;;;25.2;16.6;;;;;;;;;;;;;
2022/12/09 16:35:16;;;;;;;24.8;16;;;;;;;;;;;;;
2022/12/09 16:37:41;;;;;;;24.2;16.3;;;;;;;;;;;;;
2022/12/09 16:40:08;;;;;;;22;15.2;;;;;;;;;;;;;
2022/12/09 16:42:34;;;;;;;26.4;17.3;;;;;;;;;;;;;
2022/12/09 16:45:01;;;;;;;29;17.6;;;;;;;;;;;;;
2022/12/09 16:47:27;;;;;;;25.8;16.9;;;;;;;;;;;;;
2022/12/09 16:49:52;;;;;;;24.7;17.5;;;;;;;;;;;;;
2022/12/09 16:52:17;;;;;;;27.8;18;;;;;;;;;;;;;
2022/12/09 16:54:42;;;;;;;26.5;17.5;;;;;;;;;;;;;
2022/12/09 16:57:08;;;;;;;27.1;17.4;;;;;;;;;;;;;
2022/12/09 16:59:33;;;;;;;28.8;19;;;;;;;;;;;;;
2022/12/09 17:02:03;;;;;;;29.5;18.6;;;;;;;;;;;;;
2022/12/09 17:04:28;;;;;;;30.1;19.6;;;;;;;;;;;;;
2022/12/09 17:06:53;;;;;;;29.7;19;;;;;;;;;;;;;
2022/12/09 17:09:20;;;;;;;27.9;18.6;;;;;;;;;;;;;
2022/12/09 17:11:45;;;;;;;32;21.3;;;;;;;;;;;;;
2022/12/09 17:14:10;;;;;;;30.2;20.1;;;;;;;;;;;;;
2022/12/09 17:16:36;;;;;;;32.1;19.4;;;;;;;;;;;;;
2022/12/09 17:19:03;;;;;;;27.4;17.4;;;;;;;;;;;;;
2022/12/09 17:21:28;;;;;;;25.7;17.2;;;;;;;;;;;;;
2022/12/09 17:23:53;;;;;;;25.3;16.2;;;;;;;;;;;;;
2022/12/09 17:26:18;;;;;;;24.7;15.9;;;;;;;;;;;;;
2022/12/09 17:28:44;;;;;;;22.4;15.1;;;;;;;;;;;;;
2022/12/09 17:31:09;;;;;;;25.7;15.4;;;;;;;;;;;;;
2022/12/09 17:33:37;;;;;;;24.1;15.6;;;;;;;;;;;;;
2022/12/09 17:36:00;;;;;;;21.9;14.7;;;;;;;;;;;;;
2022/12/09 17:38:29;;;;;;;20.3;14.2;;;;;;;;;;;;;
2022/12/09 17:40:53;;;;;;;19;13.1;;;;;;;;;;;;;
2022/12/09 17:43:18;;;;;;;17.1;13;;;;;;;;;;;;;
2022/12/09 17:45:43;;;;;;;17.6;12.5;;;;;;;;;;;;;
2022/12/09 17:48:10;;;;;;;17.2;12.7;;;;;;;;;;;;;
2022/12/09 17:50:35;;;;;;;17.4;12.3;;;;;;;;;;;;;
2022/12/09 17:53:02;;;;;;;17.9;12.5;;;;;;;;;;;;;
2022/12/09 17:55:27;;;;;;;16.1;11.7;;;;;;;;;;;;;
2022/12/09 17:57:52;;;;;;;16.9;12.6;;;;;;;;;;;;;
2022/12/09 18:00:17;;;;;;;15.7;12.2;;;;;;;;;;;;;
2022/12/09 18:02:45;;;;;;;14.1;11.3;;;;;;;;;;;;;
2022/12/09 18:05:11;;;;;;;16.1;11.9;;;;;;;;;;;;;
2022/12/09 18:07:37;;;;;;;15.6;12.1;;;;;;;;;;;;;
2022/12/09 18:10:02;;;;;;;16.4;11.3;;;;;;;;;;;;;
2022/12/09 18:12:30;;;;;;;17.1;12.7;;;;;;;;;;;;;
2022/12/09 18:14:55;;;;;;;18.2;12.8;;;;;;;;;;;;;
2022/12/09 18:17:21;;;;;;;15;11.5;;;;;;;;;;;;;
2022/12/09 18:19:46;;;;;;;19.2;12.4;;;;;;;;;;;;;
2022/12/09 18:22:12;;;;;;;15.8;12.2;;;;;;;;;;;;;
2022/12/09 18:24:37;;;;;;;16.9;12.4;;;;;;;;;;;;;
2022/12/09 18:27:05;;;;;;;16.7;12.8;;;;;;;;;;;;;
2022/12/09 18:29:30;;;;;;;19.1;12.8;;;;;;;;;;;;;
2022/12/09 18:31:56;;;;;;;15.7;11.9;;;;;;;;;;;;;
2022/12/09 18:34:20;;;;;;;17.5;13.1;;;;;;;;;;;;;
2022/12/09 18:36:45;;;;;;;17.5;14;;;;;;;;;;;;;
2022/12/09 18:39:11;;;;;;;16.5;12.8;;;;;;;;;;;;;
2022/12/09 18:41:36;;;;;;;16.9;12.7;;;;;;;;;;;;;
2022/12/09 18:44:03;;;;;;;17.8;12.5;;;;;;;;;;;;;
2022/12/09 18:46:28;;;;;;;17.6;12.6;;;;;;;;;;;;;
2022/12/09 18:48:54;;;;;;;15.9;11.9;;;;;;;;;;;;;
2022/12/09 18:51:19;;;;;;;16.4;12.7;;;;;;;;;;;;;
2022/12/09 18:53:46;;;;;;;17.7;13.4;;;;;;;;;;;;;
2022/12/09 18:56:11;;;;;;;14.3;11.3;;;;;;;;;;;;;
2022/12/09 18:58:37;;;;;;;14.6;11.1;;;;;;;;;;;;;
2022/12/09 19:01:02;;;;;;;16.7;12.1;;;;;;;;;;;;;
2022/12/09 19:03:27;;;;;;;15.9;12.4;;;;;;;;;;;;;
2022/12/09 19:05:52;;;;;;;19.8;14.5;;;;;;;;;;;;;
2022/12/09 19:08:18;;;;;;;21.8;16;;;;;;;;;;;;;
2022/12/09 19:10:43;;;;;;;19.1;14.2;;;;;;;;;;;;;
2022/12/09 19:13:09;;;;;;;19;13.1;;;;;;;;;;;;;
2022/12/09 19:15:34;;;;;;;18.9;13.7;;;;;;;;;;;;;
2022/12/09 19:18:02;;;;;;;29.9;21.4;;;;;;;;;;;;;
2022/12/09 19:20:28;;;;;;;32.1;22.2;;;;;;;;;;;;;
2022/12/09 19:22:53;;;;;;;23.5;16.3;;;;;;;;;;;;;
2022/12/09 19:25:18;;;;;;;31.3;21.1;;;;;;;;;;;;;
2022/12/09 19:27:48;;;;;;;22.4;16.1;;;;;;;;;;;;;
2022/12/09 19:30:12;;;;;;;21.2;15.6;;;;;;;;;;;;;
2022/12/09 19:32:40;;;;;;;16.1;12.8;;;;;;;;;;;;;
2022/12/09 19:35:04;;;;;;;25.9;17.7;;;;;;;;;;;;;
2022/12/09 19:37:31;;;;;;;19.2;13.7;;;;;;;;;;;;;
2022/12/09 19:39:56;;;;;;;26.8;16.8;;;;;;;;;;;;;
2022/12/09 19:42:21;;;;;;;16.6;12.3;;;;;;;;;;;;;
2022/12/09 19:44:48;;;;;;;16;11.8;;;;;;;;;;;;;
2022/12/09 19:47:13;;;;;;;15.6;12.1;;;;;;;;;;;;;
2022/12/09 19:49:40;;;;;;;16.2;12.4;;;;;;;;;;;;;
2022/12/09 19:52:06;;;;;;;17.9;12.9;;;;;;;;;;;;;
2022/12/09 19:54:31;;;;;;;16.4;12.1;;;;;;;;;;;;;
2022/12/09 19:56:56;;;;;;;15.8;12.9;;;;;;;;;;;;;
2022/12/09 19:59:22;;;;;;;16.2;12.9;;;;;;;;;;;;;
2022/12/09 20:01:48;;;;;;;15.9;13;;;;;;;;;;;;;
2022/12/09 20:04:14;;;;;;;18.4;12.7;;;;;;;;;;;;;
2022/12/09 20:06:40;;;;;;;18.5;13.3;;;;;;;;;;;;;
2022/12/09 20:09:05;;;;;;;20.5;15;;;;;;;;;;;;;
2022/12/09 20:11:32;;;;;;;19.8;14.4;;;;;;;;;;;;;
2022/12/09 20:13:56;;;;;;;16.6;11.9;;;;;;;;;;;;;
2022/12/09 20:16:21;;;;;;;17.4;12.8;;;;;;;;;;;;;
2022/12/09 20:18:48;;;;;;;20.4;14.7;;;;;;;;;;;;;
2022/12/09 20:21:14;;;;;;;17.9;13.3;;;;;;;;;;;;;
2022/12/09 20:23:39;;;;;;;17.5;13.8;;;;;;;;;;;;;
2022/12/09 20:26:04;;;;;;;18.6;13.4;;;;;;;;;;;;;
2022/12/09 20:28:29;;;;;;;33.6;20.2;;;;;;;;;;;;;
2022/12/09 20:30:54;;;;;;;21.1;15.1;;;;;;;;;;;;;
2022/12/09 20:33:19;;;;;;;21.9;15.5;;;;;;;;;;;;;
2022/12/09 20:35:45;;;;;;;23.8;15.6;;;;;;;;;;;;;
2022/12/09 20:38:10;;;;;;;20;14.3;;;;;;;;;;;;;
2022/12/09 20:40:35;;;;;;;18.5;14.2;;;;;;;;;;;;;
2022/12/09 20:43:01;;;;;;;16.3;12.6;;;;;;;;;;;;;
2022/12/09 20:45:26;;;;;;;16.1;12.8;;;;;;;;;;;;;
2022/12/09 20:47:53;;;;;;;16.3;12.4;;;;;;;;;;;;;
2022/12/09 20:50:18;;;;;;;18.7;13.2;;;;;;;;;;;;;
2022/12/09 20:52:46;;;;;;;15.8;12.1;;;;;;;;;;;;;
2022/12/09 20:55:11;;;;;;;15.4;12.5;;;;;;;;;;;;;
2022/12/09 20:57:36;;;;;;;16.4;12.4;;;;;;;;;;;;;
2022/12/09 21:00:01;;;;;;;17.2;11.9;;;;;;;;;;;;;
2022/12/09 21:02:37;;;;;;;21.7;13.8;;;;;;;;;;;;;
2022/12/09 21:04:55;;;;;;;20.9;14.4;;;;;;;;;;;;;
2022/12/09 21:07:21;;;;;;;39;19.8;;;;;;;;;;;;;
2022/12/09 21:09:46;;;;;;;16.5;12.3;;;;;;;;;;;;;
2022/12/09 21:12:11;;;;;;;17;12.4;;;;;;;;;;;;;
2022/12/09 21:14:36;;;;;;;17.9;12.8;;;;;;;;;;;;;
2022/12/09 21:17:04;;;;;;;16.5;12;;;;;;;;;;;;;
2022/12/09 21:19:31;;;;;;;17.8;13;;;;;;;;;;;;;